Accueil
METAR-TAF:

METAR-TAF

Aéroports :

Fritzlar, Allemagne

latitude: 51-07N, longitude: 009-17E, altitude: 172 m

Observation

Le bulletin a été fait il y a 27 minutes, à 16:20 UTC
Vent 5 kt de nord
Température 21°C
Humidité 46%
Pression 1020 hPa
Visibilité 10 km ou plus
Quelques nuages à une hauteur de 5000 ft
Nuages épars à une hauteur de 30000 ft

METAR: ETHF 221620Z 01005KT 9999 FEW050 SCT300 21/09 Q1020 BLU+

Heure: 18:47 (16:47 UTC)

Prévision

Le bulletin a été fait il y a 2 heures et 5 minutes, à 14:42 UTC
Prévision valable du 22 à 14 UTC au 22 à 23 UTC
Vent 3 kt de direction variable
Visibilité: 1500 m
Quelques nuages à une hauteur de 5000 ft

TAF: ETHF 221442Z 2214/2223 VRB03KT 9999 NSW FEW050 CANCEL 1500

Observations et prévisions météorologiques de plus de 4000 aéroports (messages METAR et TAF).

Les stations disponibles sont représentées par des disques jaunes et rouges sur la carte.

Passer la souris dessus pour voir le nom de la station.

Cliquer dessus pour voir les observations et prévisions météorologiques.

Pour changer de carte: cliquez sur les boutons verts avec une croix noire pour zoomer, sur le bouton vert avec un tiret pour effectuer un zoom arrière, ou sur les flèches vertes pour les cartes adjacentes.


METAR-TAF: